Delray, West Virginia
Current Conditions -  °F | °C
As of 10:15 AM on Saturday 25 Oct 2014 (Local Time) from KOKV Reporting Station
Clear Clear  
Wind Chill: 59°   Ceiling: Unl
Heat Index: 59°   Visibility: 10mi
Dew Point: 32°   Wind: 7mph
Humidity: 36%   Direction: 230°SW
Pressure: 29.97"   Gusts: NA
Location:  39.21°N, 78.59°W
Report Text: KOKV 251415Z AUTO 23006KT 10SM CLR 15/00 A2997 RMK AO2
Loading
Personal Weather Stations






























Interactive Weather Map
Tropical Storm Tracking
New forecast layout! Learn more

10-Day Weather Forecast

Advertisements
Track Severe Weather on mobile